createdAt,value
2022-10-19T00:01:08.581Z,99.94
2022-10-19T00:03:36.288Z,100.00
2022-10-19T00:06:13.750Z,100.00
2022-10-19T00:08:40.467Z,100.00
2022-10-19T00:11:07.469Z,100.00
2022-10-19T00:13:34.104Z,100.00
2022-10-19T00:16:00.660Z,100.00
2022-10-19T00:18:27.243Z,100.00
2022-10-19T00:21:01.980Z,100.00
2022-10-19T00:23:28.388Z,100.00
2022-10-19T00:25:56.209Z,100.00
2022-10-19T00:28:22.945Z,100.00
2022-10-19T00:33:22.529Z,100.00
2022-10-19T00:35:50.836Z,100.00
2022-10-19T00:38:19.137Z,100.00
2022-10-19T00:40:46.531Z,99.81
2022-10-19T00:43:15.866Z,98.06
2022-10-19T00:45:42.802Z,98.27
2022-10-19T00:48:13.224Z,98.04
2022-10-19T00:50:40.779Z,99.91
2022-10-19T00:53:07.325Z,100.00
2022-10-19T00:55:34.713Z,100.00
2022-10-19T00:58:03.072Z,100.00
2022-10-19T01:00:29.996Z,100.00
2022-10-19T01:02:59.044Z,99.76
2022-10-19T01:05:26.472Z,99.57
2022-10-19T01:07:53.931Z,99.20
2022-10-19T01:10:25.211Z,98.58
2022-10-19T01:13:14.887Z,99.60
2022-10-19T01:16:01.632Z,99.80
2022-10-19T01:18:45.296Z,100.00
2022-10-19T01:21:21.723Z,100.00
2022-10-19T01:24:07.057Z,100.00
2022-10-19T01:26:52.404Z,100.00
2022-10-19T01:29:52.846Z,100.00
2022-10-19T01:32:38.214Z,99.79
2022-10-19T01:35:17.031Z,99.62
2022-10-19T01:37:59.252Z,98.94
2022-10-19T01:40:42.705Z,99.45
2022-10-19T01:43:23.171Z,98.92
2022-10-19T01:45:55.519Z,98.60
2022-10-19T01:48:35.524Z,99.26
2022-10-19T01:51:06.293Z,99.91
2022-10-19T01:53:40.393Z,100.00
2022-10-19T01:56:08.692Z,100.00
2022-10-19T01:58:38.769Z,100.00
2022-10-19T02:01:09.174Z,100.00
2022-10-19T02:03:37.534Z,100.00
2022-10-19T02:06:06.473Z,100.00
2022-10-19T02:08:53.138Z,100.00
2022-10-19T02:11:21.945Z,100.00
2022-10-19T02:14:04.509Z,100.00
2022-10-19T02:16:38.754Z,100.00
2022-10-19T02:19:08.777Z,100.00
2022-10-19T02:21:35.558Z,100.00
2022-10-19T02:24:02.043Z,100.00
2022-10-19T02:26:28.627Z,100.00
2022-10-19T02:28:56.664Z,100.00
2022-10-19T02:31:24.421Z,100.00
2022-10-19T02:33:51.524Z,100.00
2022-10-19T02:36:18.740Z,100.00
2022-10-19T02:38:45.373Z,99.41
2022-10-19T02:41:22.048Z,99.28
2022-10-19T02:43:52.983Z,99.82
2022-10-19T02:46:49.791Z,99.08
2022-10-19T02:49:16.869Z,99.14
2022-10-19T02:52:01.605Z,99.33
2022-10-19T02:54:29.085Z,99.58
2022-10-19T02:56:56.583Z,100.00
2022-10-19T02:59:23.933Z,100.00
2022-10-19T03:01:50.863Z,100.00
2022-10-19T03:04:17.689Z,100.00
2022-10-19T03:06:44.424Z,100.00
2022-10-19T03:09:10.968Z,100.00
2022-10-19T03:11:37.577Z,100.00
2022-10-19T03:14:04.123Z,99.35
2022-10-19T03:16:30.686Z,98.37
2022-10-19T03:18:57.216Z,98.78
2022-10-19T03:21:23.917Z,99.16
2022-10-19T03:23:50.462Z,100.00
2022-10-19T03:26:18.007Z,99.11
2022-10-19T03:28:44.669Z,99.01
2022-10-19T03:31:11.859Z,98.63
2022-10-19T03:33:38.505Z,97.92
2022-10-19T03:36:23.811Z,97.25
2022-10-19T03:38:51.930Z,96.86
2022-10-19T03:41:19.981Z,96.49
2022-10-19T03:43:46.687Z,96.29
2022-10-19T03:46:13.453Z,96.05
2022-10-19T03:48:40.087Z,95.98
2022-10-19T03:51:09.277Z,96.38
2022-10-19T03:53:36.634Z,95.90
2022-10-19T03:56:15.284Z,96.12
2022-10-19T03:58:43.025Z,96.16
2022-10-19T04:01:12.304Z,96.41
2022-10-19T04:03:39.101Z,96.71
2022-10-19T04:06:26.756Z,97.35
2022-10-19T04:08:53.785Z,96.14
2022-10-19T04:11:26.592Z,95.65
2022-10-19T04:13:54.778Z,96.02
2022-10-19T04:16:23.125Z,96.34
2022-10-19T04:18:49.916Z,95.85
2022-10-19T04:21:28.393Z,96.42
2022-10-19T04:24:01.569Z,96.63
2022-10-19T04:26:28.249Z,96.40
2022-10-19T04:28:57.997Z,96.17
2022-10-19T04:31:25.127Z,95.83
2022-10-19T04:33:51.714Z,95.95
2022-10-19T04:36:18.373Z,95.33
2022-10-19T04:38:44.996Z,96.02
2022-10-19T04:41:13.786Z,96.65
2022-10-19T04:43:40.830Z,97.19
2022-10-19T04:46:14.325Z,96.90
2022-10-19T04:48:41.678Z,96.86
2022-10-19T04:51:09.249Z,97.33
2022-10-19T04:53:38.158Z,96.89
2022-10-19T04:56:06.958Z,96.74
2022-10-19T04:58:34.312Z,97.15
2022-10-19T05:01:07.972Z,97.65
2022-10-19T05:03:34.540Z,98.10
2022-10-19T05:06:01.084Z,97.49
2022-10-19T05:08:27.613Z,97.11
2022-10-19T05:10:54.211Z,96.82
2022-10-19T05:13:20.902Z,97.10
2022-10-19T05:15:58.149Z,97.23
2022-10-19T05:18:24.915Z,97.34
2022-10-19T05:20:51.644Z,97.25
2022-10-19T05:23:18.196Z,97.62
2022-10-19T05:25:44.893Z,97.48
2022-10-19T05:28:11.622Z,97.22
2022-10-19T05:30:39.282Z,97.95
2022-10-19T05:33:05.932Z,98.50
2022-10-19T05:35:32.533Z,98.33
2022-10-19T05:37:59.073Z,99.37
2022-10-19T05:40:25.591Z,99.07
2022-10-19T05:42:52.124Z,99.30
2022-10-19T05:45:18.747Z,99.58
2022-10-19T05:47:45.267Z,99.10
2022-10-19T05:50:11.794Z,98.96
2022-10-19T05:52:38.312Z,98.17
2022-10-19T05:55:05.386Z,97.13
2022-10-19T05:57:32.990Z,97.06
2022-10-19T05:59:59.871Z,96.37
2022-10-19T06:02:26.385Z,96.02
2022-10-19T06:04:52.998Z,96.50
2022-10-19T06:07:19.543Z,96.82
2022-10-19T06:09:46.211Z,95.95
2022-10-19T06:12:13.496Z,94.96
2022-10-19T06:14:42.526Z,94.21
2022-10-19T06:17:09.322Z,94.72
2022-10-19T06:19:35.976Z,94.42
2022-10-19T06:22:02.644Z,94.11
2022-10-19T06:24:29.178Z,94.14
2022-10-19T06:26:55.886Z,93.71
2022-10-19T06:29:22.400Z,94.21
2022-10-19T06:31:48.949Z,94.23
2022-10-19T06:34:15.687Z,94.01
2022-10-19T06:36:42.269Z,94.20
2022-10-19T06:39:09.494Z,93.98
2022-10-19T06:41:36.153Z,94.78
2022-10-19T06:44:02.779Z,94.88
2022-10-19T06:46:29.400Z,94.45
2022-10-19T06:49:01.579Z,94.72
2022-10-19T06:51:30.498Z,94.62
2022-10-19T06:53:57.640Z,94.62
2022-10-19T06:56:25.076Z,94.21
2022-10-19T06:58:52.034Z,92.94
2022-10-19T07:01:18.758Z,92.92
2022-10-19T07:03:45.700Z,92.51
2022-10-19T07:06:13.646Z,91.16
2022-10-19T07:08:41.753Z,90.10
2022-10-19T07:11:16.515Z,89.76
2022-10-19T07:13:43.410Z,91.00
2022-10-19T07:16:16.007Z,90.85
2022-10-19T07:18:47.006Z,91.82
2022-10-19T07:21:16.197Z,92.35
2022-10-19T07:23:44.998Z,92.51
2022-10-19T07:26:23.836Z,91.91
2022-10-19T07:28:51.418Z,92.22
2022-10-19T07:31:21.344Z,93.08
2022-10-19T07:33:51.942Z,92.59
2022-10-19T07:36:18.478Z,92.25
2022-10-19T07:38:45.035Z,92.46
2022-10-19T07:41:16.791Z,93.02
2022-10-19T07:43:45.237Z,93.32
2022-10-19T07:46:20.376Z,93.28
2022-10-19T07:48:47.502Z,91.79
2022-10-19T07:51:15.940Z,90.62
2022-10-19T07:53:43.521Z,87.80
2022-10-19T07:56:19.287Z,87.01
2022-10-19T07:58:46.363Z,87.70
2022-10-19T08:01:15.766Z,88.30
2022-10-19T08:04:42.778Z,87.58
2022-10-19T08:06:29.572Z,85.70
2022-10-19T08:08:56.650Z,86.75
2022-10-19T08:11:26.406Z,83.83
2022-10-19T08:13:53.941Z,79.44
2022-10-19T08:16:25.089Z,80.26
2022-10-19T08:18:53.111Z,79.95
2022-10-19T08:21:19.732Z,79.01
2022-10-19T08:23:46.237Z,77.60
2022-10-19T08:26:12.850Z,78.70
2022-10-19T08:28:39.660Z,78.13
2022-10-19T08:31:22.256Z,78.49
2022-10-19T08:33:50.850Z,78.76
2022-10-19T08:36:19.712Z,77.78
2022-10-19T08:38:48.436Z,76.87
2022-10-19T08:41:39.895Z,77.32
2022-10-19T08:44:15.250Z,75.81
2022-10-19T08:47:06.113Z,75.20
2022-10-19T08:49:35.285Z,75.56
2022-10-19T08:52:11.474Z,76.01
2022-10-19T08:57:33.737Z,74.93
2022-10-19T09:00:15.406Z,74.01
2022-10-19T09:03:09.762Z,72.87
2022-10-19T09:05:52.970Z,72.70
2022-10-19T09:08:20.722Z,72.65
2022-10-19T09:10:50.565Z,72.57
2022-10-19T09:14:00.436Z,71.88
2022-10-19T09:16:29.078Z,71.75
2022-10-19T09:18:55.717Z,71.41
2022-10-19T09:21:34.443Z,71.16
2022-10-19T09:24:25.015Z,71.30
2022-10-19T09:26:53.885Z,70.26
2022-10-19T09:29:28.775Z,69.43
2022-10-19T09:34:36.784Z,69.40
2022-10-19T09:37:06.012Z,68.27
2022-10-19T09:39:32.851Z,68.50
2022-10-19T09:42:01.211Z,68.39
2022-10-19T09:44:27.862Z,68.12
2022-10-19T09:47:13.789Z,67.28
2022-10-19T09:49:46.300Z,66.79
2022-10-19T09:52:35.957Z,66.34
2022-10-19T09:55:14.717Z,65.80
2022-10-19T09:57:58.543Z,64.80
2022-10-19T10:00:31.664Z,63.68
2022-10-19T10:02:58.256Z,63.13
2022-10-19T10:05:33.885Z,63.35
2022-10-19T10:08:00.832Z,62.50
2022-10-19T10:10:39.485Z,62.33
2022-10-19T10:13:06.421Z,60.51
2022-10-19T10:15:43.642Z,60.07
2022-10-19T10:18:15.587Z,61.26
2022-10-19T10:20:59.261Z,62.03
2022-10-19T10:23:29.297Z,62.16
2022-10-19T10:25:57.854Z,61.79
2022-10-19T10:28:27.045Z,59.42
2022-10-19T10:31:08.878Z,59.92
2022-10-19T10:33:45.161Z,58.19
2022-10-19T10:36:13.188Z,58.38
2022-10-19T10:38:45.690Z,60.04
2022-10-19T10:41:18.652Z,59.24
2022-10-19T10:43:53.824Z,58.59
2022-10-19T10:46:28.325Z,57.58
2022-10-19T10:49:15.631Z,59.28
2022-10-19T10:51:54.038Z,59.57
2022-10-19T10:54:23.760Z,59.43
2022-10-19T10:57:19.988Z,60.34
2022-10-19T11:00:15.550Z,60.64
2022-10-19T11:02:52.160Z,57.20
2022-10-19T11:05:26.588Z,55.25
2022-10-19T11:08:04.835Z,54.34
2022-10-19T11:10:31.406Z,53.02
2022-10-19T11:13:24.171Z,51.71
2022-10-19T11:15:57.485Z,52.57
2022-10-19T11:18:46.128Z,52.25
2022-10-19T11:21:15.679Z,52.26
2022-10-19T11:24:02.293Z,50.40
2022-10-19T11:26:58.180Z,49.62
2022-10-19T11:29:38.256Z,48.32
2022-10-19T11:32:14.475Z,47.99
2022-10-19T11:35:20.840Z,47.05
2022-10-19T11:38:17.988Z,46.61
2022-10-19T11:40:54.234Z,46.69
2022-10-19T11:43:38.996Z,47.12
2022-10-19T11:46:45.696Z,47.39
2022-10-19T11:52:54.744Z,47.84
2022-10-19T11:55:51.288Z,48.34
2022-10-19T11:58:57.750Z,48.44
2022-10-19T12:01:46.014Z,47.85
2022-10-19T12:04:24.759Z,48.52
2022-10-19T12:07:10.845Z,48.59
2022-10-19T12:09:55.444Z,49.68
2022-10-19T12:12:36.206Z,49.57
2022-10-19T12:15:26.238Z,50.24
2022-10-19T12:17:56.170Z,50.69
2022-10-19T12:20:42.319Z,50.22
2022-10-19T12:23:25.852Z,49.62
2022-10-19T12:25:55.670Z,49.15
2022-10-19T12:28:28.053Z,49.23
2022-10-19T12:30:55.751Z,49.92
2022-10-19T12:33:37.248Z,49.65
2022-10-19T12:36:11.600Z,50.17
2022-10-19T12:38:50.734Z,49.88
2022-10-19T12:41:33.053Z,48.67
2022-10-19T12:44:02.740Z,48.27
2022-10-19T12:46:38.116Z,48.67
2022-10-19T12:49:26.595Z,48.51
2022-10-19T12:51:54.811Z,49.12
2022-10-19T12:54:26.026Z,48.89
2022-10-19T12:56:55.978Z,49.72
2022-10-19T12:59:35.014Z,49.94
2022-10-19T13:02:04.925Z,51.16
2022-10-19T13:04:34.426Z,53.00
2022-10-19T13:07:05.129Z,54.79
2022-10-19T13:09:41.930Z,55.69
2022-10-19T13:12:33.167Z,56.37
2022-10-19T13:15:02.259Z,56.78
2022-10-19T13:17:51.004Z,57.05
2022-10-19T13:20:17.503Z,57.28
2022-10-19T13:22:50.387Z,57.04
2022-10-19T13:25:19.501Z,57.16
2022-10-19T13:27:53.881Z,56.92
2022-10-19T13:30:35.726Z,57.22
2022-10-19T13:33:31.617Z,56.88
2022-10-19T13:36:04.391Z,57.39
2022-10-19T13:38:39.000Z,57.08
2022-10-19T13:41:28.029Z,57.65
2022-10-19T13:44:18.253Z,58.03
2022-10-19T13:47:00.819Z,58.29
2022-10-19T13:49:43.378Z,58.80
2022-10-19T13:52:43.523Z,57.98
2022-10-19T13:55:16.041Z,58.49
2022-10-19T13:58:04.229Z,58.02
2022-10-19T14:00:47.779Z,56.79
2022-10-19T14:03:20.576Z,57.04
2022-10-19T14:06:27.692Z,55.86
2022-10-19T14:09:25.661Z,55.18
2022-10-19T14:11:54.540Z,54.96
2022-10-19T14:14:24.238Z,54.85
2022-10-19T14:17:01.451Z,54.49
2022-10-19T14:19:43.684Z,54.17
2022-10-19T14:22:40.693Z,54.29
2022-10-19T14:25:18.307Z,54.95
2022-10-19T14:27:54.061Z,54.72
2022-10-19T14:30:21.693Z,55.22
2022-10-19T14:32:48.419Z,54.68
2022-10-19T14:35:30.839Z,54.00
2022-10-19T14:37:58.748Z,53.86
2022-10-19T14:40:28.657Z,51.99
2022-10-19T14:42:57.248Z,51.72
2022-10-19T14:45:27.117Z,51.89
2022-10-19T14:48:17.718Z,50.74
2022-10-19T14:50:51.544Z,51.18
2022-10-19T14:53:36.218Z,50.90
2022-10-19T14:56:32.919Z,51.05
2022-10-19T14:59:03.386Z,51.41
2022-10-19T15:01:30.225Z,51.72
2022-10-19T15:03:56.941Z,52.05
2022-10-19T15:06:30.551Z,52.00
2022-10-19T15:09:04.131Z,52.20
2022-10-19T15:11:37.924Z,52.05
2022-10-19T15:14:22.166Z,52.30
2022-10-19T15:16:56.935Z,52.69
2022-10-19T15:19:26.223Z,52.73
2022-10-19T15:22:12.869Z,52.76
2022-10-19T15:24:40.493Z,52.95
2022-10-19T15:27:19.629Z,52.59
2022-10-19T15:30:00.376Z,52.35
2022-10-19T15:32:35.719Z,51.97
2022-10-19T15:35:18.515Z,51.01
2022-10-19T15:37:49.450Z,51.73
2022-10-19T15:40:29.664Z,51.42
2022-10-19T15:42:56.497Z,50.88
2022-10-19T15:45:38.676Z,50.46
2022-10-19T15:48:11.224Z,50.79
2022-10-19T15:50:42.672Z,50.91
2022-10-19T15:53:10.701Z,51.08
2022-10-19T15:55:37.718Z,51.46
2022-10-19T15:58:04.265Z,51.54
2022-10-19T16:00:31.041Z,50.91
2022-10-19T16:02:57.583Z,50.79
2022-10-19T16:05:24.489Z,50.59
2022-10-19T16:07:51.255Z,50.57
2022-10-19T16:10:21.944Z,50.75
2022-10-19T16:12:48.550Z,51.15
2022-10-19T16:15:22.495Z,50.59
2022-10-19T16:17:52.257Z,50.69
2022-10-19T16:20:19.569Z,50.73
2022-10-19T16:22:47.492Z,50.84
2022-10-19T16:25:14.587Z,50.96
2022-10-19T16:27:41.194Z,51.23
2022-10-19T16:30:08.413Z,50.98
2022-10-19T16:32:35.135Z,51.67
2022-10-19T16:35:01.710Z,51.51
2022-10-19T16:37:28.342Z,51.53
2022-10-19T16:39:54.836Z,51.39
2022-10-19T16:42:22.300Z,51.62
2022-10-19T16:44:49.535Z,51.95
2022-10-19T16:47:17.136Z,52.13
2022-10-19T16:49:43.706Z,52.34
2022-10-19T16:52:14.107Z,52.30
2022-10-19T16:54:40.851Z,52.02
2022-10-19T16:57:10.075Z,52.09
2022-10-19T16:59:36.806Z,52.49
2022-10-19T17:02:03.427Z,52.73
2022-10-19T17:04:29.945Z,52.31
2022-10-19T17:06:57.645Z,52.73
2022-10-19T17:12:12.848Z,52.59
2022-10-19T17:14:41.475Z,52.59
2022-10-19T17:17:09.699Z,53.00
2022-10-19T17:19:37.509Z,52.99
2022-10-19T17:22:05.433Z,53.20
2022-10-19T17:24:32.320Z,53.44
2022-10-19T17:27:01.462Z,52.85
2022-10-19T17:29:27.996Z,53.03
2022-10-19T17:31:54.546Z,53.02
2022-10-19T17:34:21.087Z,53.46
2022-10-19T17:36:47.969Z,54.00
2022-10-19T17:39:18.316Z,53.92
2022-10-19T17:41:46.960Z,54.06
2022-10-19T17:44:14.164Z,54.42
2022-10-19T17:46:41.110Z,54.48
2022-10-19T17:49:07.866Z,54.39
2022-10-19T17:51:36.225Z,54.35
2022-10-19T17:54:08.670Z,54.48
2022-10-19T17:56:36.250Z,54.40
2022-10-19T17:59:03.295Z,54.32
2022-10-19T18:01:30.488Z,54.88
2022-10-19T18:03:57.179Z,55.03
2022-10-19T18:06:29.618Z,55.39
2022-10-19T18:08:57.225Z,55.17
2022-10-19T18:11:32.402Z,55.17
2022-10-19T18:14:00.887Z,55.63
2022-10-19T18:16:30.654Z,55.87
2022-10-19T18:18:59.284Z,55.86
2022-10-19T18:21:35.988Z,55.53
2022-10-19T18:24:03.181Z,56.16
2022-10-19T18:26:32.288Z,55.98
2022-10-19T18:29:00.299Z,56.15
2022-10-19T18:31:31.622Z,56.16
2022-10-19T18:34:04.813Z,56.61
2022-10-19T18:36:32.586Z,56.77
2022-10-19T18:39:01.804Z,56.70
2022-10-19T18:41:29.752Z,56.75
2022-10-19T18:44:03.763Z,56.95
2022-10-19T18:46:30.801Z,57.47
2022-10-19T18:48:57.380Z,58.04
2022-10-19T18:51:24.332Z,57.75
2022-10-19T18:53:51.015Z,58.06
2022-10-19T18:56:20.128Z,58.60
2022-10-19T18:58:47.407Z,58.66
2022-10-19T19:01:15.791Z,58.85
2022-10-19T19:03:44.560Z,58.96
2022-10-19T19:06:20.170Z,59.37
2022-10-19T19:08:47.690Z,59.14
2022-10-19T19:11:17.095Z,59.91
2022-10-19T19:13:51.597Z,59.64
2022-10-19T19:16:19.200Z,60.32
2022-10-19T19:18:46.476Z,60.22
2022-10-19T19:21:19.492Z,60.46
2022-10-19T19:23:46.365Z,61.23
2022-10-19T19:26:13.565Z,61.11
2022-10-19T19:28:41.894Z,61.24
2022-10-19T19:31:10.727Z,61.46
2022-10-19T19:33:38.602Z,62.11
2022-10-19T19:36:06.888Z,63.01
2022-10-19T19:38:34.107Z,63.11
2022-10-19T19:41:04.570Z,63.42
2022-10-19T19:43:33.314Z,64.25
2022-10-19T19:46:04.628Z,64.24
2022-10-19T19:48:34.714Z,64.59
2022-10-19T19:51:01.364Z,64.92
2022-10-19T19:53:27.871Z,64.87
2022-10-19T19:55:54.421Z,65.54
2022-10-19T19:58:21.083Z,65.32
2022-10-19T20:00:47.721Z,65.36
2022-10-19T20:03:14.388Z,65.55
2022-10-19T20:05:41.112Z,65.04
2022-10-19T20:08:08.570Z,65.58
2022-10-19T20:10:39.684Z,64.71
2022-10-19T20:13:06.449Z,64.32
2022-10-19T20:15:33.588Z,64.08
2022-10-19T20:18:00.163Z,64.10
2022-10-19T20:20:26.775Z,63.69
2022-10-19T20:22:53.494Z,64.08
2022-10-19T20:25:20.044Z,63.92
2022-10-19T20:27:46.590Z,64.07
2022-10-19T20:30:13.210Z,64.66
2022-10-19T20:32:39.972Z,64.73
2022-10-19T20:35:07.621Z,64.53
2022-10-19T20:37:34.665Z,64.87
2022-10-19T20:40:08.174Z,65.04
2022-10-19T20:42:35.424Z,65.01
2022-10-19T20:45:02.202Z,65.41
2022-10-19T20:47:28.764Z,65.59
2022-10-19T20:49:55.364Z,65.91
2022-10-19T20:52:21.934Z,66.52
2022-10-19T20:54:49.341Z,66.90
2022-10-19T20:57:15.910Z,66.82
2022-10-19T20:59:44.003Z,67.36
2022-10-19T21:02:11.014Z,67.14
2022-10-19T21:04:37.622Z,67.54
2022-10-19T21:07:05.101Z,67.43
2022-10-19T21:09:32.246Z,67.68
2022-10-19T21:11:58.976Z,68.14
2022-10-19T21:14:28.881Z,68.36
2022-10-19T21:17:02.248Z,68.34
2022-10-19T21:19:30.172Z,69.00
2022-10-19T21:22:02.234Z,69.10
2022-10-19T21:24:34.122Z,69.12
2022-10-19T21:27:02.449Z,68.81
2022-10-19T21:29:29.326Z,68.36
2022-10-19T21:31:56.151Z,68.70
2022-10-19T21:34:25.918Z,69.15
2022-10-19T21:36:53.436Z,69.20
2022-10-19T21:39:20.454Z,69.32
2022-10-19T21:41:48.052Z,69.42
2022-10-19T21:44:16.221Z,69.38
2022-10-19T21:46:45.832Z,69.49
2022-10-19T21:49:12.818Z,69.95
2022-10-19T21:51:46.496Z,70.95
2022-10-19T21:54:15.840Z,70.39
2022-10-19T21:56:43.431Z,70.19
2022-10-19T21:59:10.269Z,70.05
2022-10-19T22:01:40.159Z,70.18
2022-10-19T22:04:11.983Z,70.06
2022-10-19T22:06:38.852Z,70.04
2022-10-19T22:09:07.569Z,70.33
2022-10-19T22:11:34.319Z,69.97
2022-10-19T22:14:03.017Z,70.51
2022-10-19T22:16:31.448Z,70.63
2022-10-19T22:18:58.140Z,70.83
2022-10-19T22:21:28.265Z,70.51
2022-10-19T22:24:07.146Z,70.80
2022-10-19T22:26:39.601Z,71.45
2022-10-19T22:29:07.048Z,71.39
2022-10-19T22:31:34.803Z,71.72
2022-10-19T22:34:07.684Z,71.18
2022-10-19T22:36:34.803Z,71.65
2022-10-19T22:39:01.604Z,71.61
2022-10-19T22:41:28.123Z,72.13
2022-10-19T22:43:54.594Z,71.84
2022-10-19T22:46:21.073Z,72.08
2022-10-19T22:48:47.582Z,72.38
2022-10-19T22:51:14.239Z,72.25
2022-10-19T22:53:40.831Z,72.13
2022-10-19T22:56:08.160Z,71.67
2022-10-19T22:58:34.623Z,72.65
2022-10-19T23:01:04.406Z,72.84
2022-10-19T23:03:30.976Z,72.93
2022-10-19T23:05:58.560Z,72.95
2022-10-19T23:08:25.627Z,73.02
2022-10-19T23:10:52.497Z,72.89
2022-10-19T23:13:19.054Z,72.99
2022-10-19T23:15:45.883Z,73.14
2022-10-19T23:18:13.599Z,73.29
2022-10-19T23:20:40.261Z,73.21
2022-10-19T23:23:07.710Z,73.41
2022-10-19T23:25:34.456Z,73.29
2022-10-19T23:28:01.049Z,73.70
2022-10-19T23:30:27.525Z,73.26
2022-10-19T23:32:54.067Z,73.77
2022-10-19T23:35:20.508Z,73.55
2022-10-19T23:37:47.010Z,73.31
2022-10-19T23:40:13.470Z,73.96
2022-10-19T23:42:40.008Z,74.10
2022-10-19T23:45:07.095Z,74.29
2022-10-19T23:47:33.861Z,74.47
2022-10-19T23:50:00.625Z,74.43
2022-10-19T23:52:27.142Z,74.50
2022-10-19T23:54:53.684Z,74.96
2022-10-19T23:57:20.235Z,75.00
2022-10-19T23:59:46.772Z,74.92
